Time;durP1;ratioP1;P1;durP2;ratioP2;P2;SDS_P1;SDS_P2;PMS_P1;PMS_P2;Temp;Humidity;BMP_temperature;BMP_pressure;BME280_temperature;BME280_humidity;BME280_pressure;Samples;Min_cycle;Max_cycle;Signal;HPM_P1;HPM_P2
2022/04/12 00:01:57;;;;;;;65.60;58.70;;;;;;;2.80;66.50;98209.48;107808;1290;22352;-85
2022/04/12 00:04:25;;;;;;;77.20;63.80;;;;;;;2.68;66.50;98207.23;107819;1291;23198;-88
2022/04/12 00:06:53;;;;;;;56.40;50.40;;;;;;;2.60;66.78;98206.08;107819;1291;22385;-85
2022/04/12 00:09:21;;;;;;;58.00;51.80;;;;;;;2.64;66.91;98203.55;107330;1293;22343;-82
2022/04/12 00:11:48;;;;;;;59.10;52.80;;;;;;;2.69;66.80;98200.44;107832;1290;22481;-86
2022/04/12 00:14:16;;;;;;;54.30;48.60;;;;;;;2.69;67.13;98194.58;107841;1291;22295;-85
2022/04/12 00:16:44;;;;;;;57.30;51.30;;;;;;;2.74;67.44;98191.58;107820;1291;22733;-85
2022/04/12 00:19:14;;;;;;;52.20;46.80;;;;;;;2.79;67.24;98191.66;107833;1290;22484;-85
2022/04/12 00:21:42;;;;;;;57.90;52.00;;;;;;;2.79;67.08;98185.38;107808;1291;22377;-84
2022/04/12 00:24:10;;;;;;;59.40;53.70;;;;;;;2.75;67.06;98178.60;107817;1291;22318;-82
2022/04/12 00:26:37;;;;;;;52.50;46.80;;;;;;;2.75;67.32;98177.06;107830;1290;22431;-86
2022/04/12 00:29:06;;;;;;;48.80;44.00;;;;;;;2.79;67.30;98177.23;107826;1291;22377;-83
2022/04/12 00:31:34;;;;;;;52.80;47.30;;;;;;;2.85;67.29;98172.16;107700;1291;177091;-85
2022/04/12 00:34:01;;;;;;;52.10;46.80;;;;;;;2.89;67.41;98172.13;107812;1291;22501;-86
2022/04/12 00:36:30;;;;;;;46.20;41.40;;;;;;;2.84;67.24;98170.09;107791;1291;22274;-84
2022/04/12 00:38:58;;;;;;;45.90;39.80;;;;;;;2.80;67.26;98169.26;107828;1290;22878;-83
2022/04/12 00:41:35;;;;;;;47.60;42.70;;;;;;;2.76;67.45;98164.80;107825;1290;22266;-85
2022/04/12 00:44:03;;;;;;;48.30;43.40;;;;;;;2.73;67.60;98165.69;107822;1291;22362;-85
2022/04/12 00:46:31;;;;;;;43.40;39.20;;;;;;;2.66;67.29;98170.69;107832;1291;22575;-83
2022/04/12 00:48:59;;;;;;;50.40;44.50;;;;;;;2.54;67.43;98166.91;107844;1291;22250;-84
2022/04/12 00:51:28;;;;;;;43.90;39.30;;;;;;;2.47;67.79;98174.35;107830;1290;22268;-85
2022/04/12 00:53:57;;;;;;;47.80;42.70;;;;;;;2.35;68.11;98177.44;107811;1290;22378;-84
2022/04/12 00:56:25;;;;;;;49.00;44.40;;;;;;;2.30;68.18;98174.01;107841;1291;22337;-83
2022/04/12 00:58:53;;;;;;;47.80;43.00;;;;;;;2.35;68.53;98174.98;107831;1290;22263;-84
2022/04/12 01:01:21;;;;;;;48.60;43.60;;;;;;;2.42;68.62;98174.10;107814;1290;23122;-83
2022/04/12 01:03:49;;;;;;;51.10;46.00;;;;;;;2.48;68.65;98180.38;107811;1291;22894;-83
2022/04/12 01:06:18;;;;;;;45.50;40.70;;;;;;;2.51;68.31;98178.36;107815;1290;22488;-82
2022/04/12 01:08:46;;;;;;;42.60;38.20;;;;;;;2.53;68.37;98175.90;107829;1291;22259;-83
2022/04/12 01:11:14;;;;;;;42.00;37.70;;;;;;;2.57;68.41;98183.04;107695;1292;22355;-82
2022/04/12 01:13:41;;;;;;;42.40;38.10;;;;;;;2.56;68.47;98183.19;107800;1291;22257;-83
2022/04/12 01:16:10;;;;;;;45.50;41.00;;;;;;;2.57;68.61;98177.08;107464;1292;22371;-84
2022/04/12 01:18:40;;;;;;;46.50;42.20;;;;;;;2.62;68.79;98174.56;107833;1290;22502;-84
2022/04/12 01:21:07;;;;;;;44.00;39.60;;;;;;;2.66;68.95;98178.45;107845;1290;23094;-83
2022/04/12 01:23:45;;;;;;;38.70;34.50;;;;;;;2.61;68.39;98186.14;107829;1291;22334;-83
2022/04/12 01:26:12;;;;;;;41.30;37.10;;;;;;;2.47;68.70;98183.39;107819;1291;22273;-83
2022/04/12 01:28:44;;;;;;;40.40;36.20;;;;;;;2.42;68.90;98184.91;107812;1291;22427;-83
2022/04/12 01:31:12;;;;;;;44.40;40.10;;;;;;;2.45;69.25;98184.42;107828;1291;22533;-83
2022/04/12 01:33:41;;;;;;;52.90;47.70;;;;;;;2.51;68.91;98184.90;107815;1290;22284;-82
2022/04/12 01:36:09;;;;;;;76.90;69.00;;;;;;;2.52;68.81;98187.73;107822;1290;23037;-83
2022/04/12 01:38:37;;;;;;;47.00;42.50;;;;;;;2.51;68.97;98187.92;107832;1291;22378;-83
2022/04/12 01:41:05;;;;;;;58.70;53.20;;;;;;;2.47;69.32;98184.69;107800;1290;22345;-84
2022/04/12 01:43:34;;;;;;;50.60;45.70;;;;;;;2.46;69.12;98186.84;107805;1291;22217;-81
2022/04/12 01:46:02;;;;;;;49.50;44.60;;;;;;;2.42;69.11;98188.38;107597;1291;22409;-83
2022/04/12 01:48:30;;;;;;;45.60;41.00;;;;;;;2.35;69.17;98191.16;107806;1290;23036;-83
2022/04/12 01:50:58;;;;;;;42.10;37.90;;;;;;;2.35;69.12;98190.46;107710;1291;22502;-83
2022/04/12 01:53:25;;;;;;;40.00;35.90;;;;;;;2.36;69.51;98195.96;107826;1291;23089;-84
2022/04/12 01:55:53;;;;;;;43.40;38.80;;;;;;;2.37;69.45;98195.45;107666;1293;23046;-83
2022/04/12 01:58:21;;;;;;;46.10;41.70;;;;;;;2.39;69.72;98194.59;107824;1291;23087;-83
2022/04/12 02:00:49;;;;;;;47.40;42.80;;;;;;;2.44;69.84;98191.85;107815;1290;23105;-82
2022/04/12 02:03:17;;;;;;;56.00;50.20;;;;;;;2.51;70.01;98192.83;107800;1290;22270;-83
2022/04/12 02:05:46;;;;;;;53.40;48.00;;;;;;;2.51;69.59;98198.52;107798;1291;23186;-83
2022/04/12 02:08:14;;;;;;;51.90;46.80;;;;;;;2.45;69.58;98195.00;107799;1290;22478;-83
2022/04/12 02:10:42;;;;;;;53.90;48.00;;;;;;;2.42;69.74;98196.06;107821;1290;22364;-82
2022/04/12 02:13:09;;;;;;;45.60;41.00;;;;;;;2.43;69.82;98195.66;108271;1291;22355;-82
2022/04/12 02:15:38;;;;;;;49.90;44.90;;;;;;;2.47;69.67;98198.48;108258;1290;22407;-82
2022/04/12 02:18:06;;;;;;;48.40;43.50;;;;;;;2.47;69.48;98202.55;108259;1290;22364;-83
2022/04/12 02:20:34;;;;;;;47.40;42.50;;;;;;;2.42;69.57;98208.14;107722;1293;22339;-83
2022/04/12 02:23:02;;;;;;;48.00;43.10;;;;;;;2.37;69.77;98209.92;107701;1293;22401;-83
2022/04/12 02:25:30;;;;;;;52.50;47.10;;;;;;;2.34;69.66;98213.10;107865;1291;22251;-84
2022/04/12 02:27:58;;;;;;;59.90;54.10;;;;;;;2.30;70.00;98205.05;107874;1291;22371;-83
2022/04/12 02:30:25;;;;;;;47.30;42.10;;;;;;;2.34;70.28;98208.80;107825;1291;22345;-84
2022/04/12 02:32:53;;;;;;;50.60;45.40;;;;;;;2.37;70.11;98215.13;107806;1291;22267;-82
2022/04/12 02:35:21;;;;;;;52.20;46.70;;;;;;;2.40;70.24;98212.64;107808;1291;22272;-82
2022/04/12 02:37:49;;;;;;;47.40;42.50;;;;;;;2.44;70.25;98220.73;107805;1290;22316;-82
2022/04/12 02:40:17;;;;;;;49.50;44.60;;;;;;;2.39;69.79;98225.92;107781;1291;22433;-83
2022/04/12 02:42:45;;;;;;;50.40;45.50;;;;;;;2.31;70.24;98227.20;107774;1290;22273;-83
2022/04/12 02:45:13;;;;;;;51.70;46.50;;;;;;;2.32;70.57;98228.89;107808;1291;22359;-82
2022/04/12 02:47:41;;;;;;;54.10;48.70;;;;;;;2.29;70.54;98230.09;107825;1291;22383;-82
2022/04/12 02:50:09;;;;;;;56.20;50.50;;;;;;;2.19;70.36;98236.39;107671;1293;22439;-83
2022/04/12 02:52:37;;;;;;;61.90;55.60;;;;;;;2.13;70.45;98234.14;107574;1291;22259;-83
2022/04/12 02:55:05;;;;;;;58.20;52.20;;;;;;;2.17;70.74;98237.02;107818;1290;22367;-83
2022/04/12 02:57:33;;;;;;;59.40;53.20;;;;;;;2.24;70.79;98235.52;107810;1290;22267;-83
2022/04/12 03:00:01;;;;;;;63.30;56.70;;;;;;;2.35;70.91;98238.40;107765;1291;22386;-84
2022/04/12 03:02:29;;;;;;;56.60;51.00;;;;;;;2.44;70.99;98237.97;107824;1291;22297;-84
2022/04/12 03:04:56;;;;;;;81.10;72.50;;;;;;;2.46;70.64;98238.48;107807;1291;22251;-87
2022/04/12 03:07:24;;;;;;;62.00;56.00;;;;;;;2.41;70.47;98239.34;107802;1290;22483;-84
2022/04/12 03:09:52;;;;;;;62.80;56.50;;;;;;;2.33;70.33;98240.58;107596;1291;22259;-83
2022/04/12 03:12:20;;;;;;;61.30;54.80;;;;;;;2.27;70.66;98242.66;107814;1291;22493;-84
2022/04/12 03:14:48;;;;;;;66.90;59.70;;;;;;;2.23;70.77;98241.42;107822;1291;22383;-84
2022/04/12 03:17:16;;;;;;;55.50;49.90;;;;;;;2.26;70.73;98242.36;107822;1291;22301;-83
2022/04/12 03:19:44;;;;;;;54.20;48.90;;;;;;;2.27;70.60;98245.44;107804;1290;22358;-84
2022/04/12 03:22:12;;;;;;;57.20;51.20;;;;;;;2.23;70.54;98243.39;107812;1290;22674;-84
2022/04/12 03:24:40;;;;;;;59.40;53.60;;;;;;;2.16;70.78;98243.38;107817;1290;22359;-84
2022/04/12 03:27:07;;;;;;;62.40;56.20;;;;;;;2.08;70.99;98242.85;107831;1291;22274;-84
2022/04/12 03:29:35;;;;;;;65.30;59.10;;;;;;;2.08;71.30;98238.76;107818;1291;22307;-84
2022/04/12 03:32:03;;;;;;;61.80;55.60;;;;;;;2.12;71.52;98236.14;107804;1291;22544;-84
2022/04/12 03:34:31;;;;;;;62.10;55.30;;;;;;;2.17;71.50;98237.25;107783;1291;22253;-84
2022/04/12 03:37:00;;;;;;;68.20;61.50;;;;;;;2.24;71.18;98239.45;107811;1289;22288;-84
2022/04/12 03:39:28;;;;;;;68.20;60.20;;;;;;;2.28;71.30;98234.17;107573;1291;23137;-83
2022/04/12 03:41:56;;;;;;;73.30;65.80;;;;;;;2.32;71.32;98230.82;107809;1290;22405;-85
2022/04/12 03:44:24;;;;;;;68.40;61.70;;;;;;;2.34;71.39;98227.30;107838;1291;22366;-83
2022/04/12 03:46:52;;;;;;;68.60;62.10;;;;;;;2.35;71.35;98231.20;107562;1291;22277;-84
2022/04/12 03:49:20;;;;;;;77.90;68.80;;;;;;;2.34;71.26;98228.95;107840;1291;23099;-84
2022/04/12 03:51:47;;;;;;;76.90;69.10;;;;;;;2.32;71.28;98232.54;107822;1290;22387;-83
2022/04/12 03:54:15;;;;;;;74.70;67.40;;;;;;;2.29;71.40;98231.04;107668;1293;22435;-82
2022/04/12 03:56:43;;;;;;;78.70;70.70;;;;;;;2.31;71.14;98233.53;107811;1291;22352;-81
2022/04/12 03:59:11;;;;;;;78.60;70.20;;;;;;;2.27;71.07;98232.34;107794;1290;22408;-83
2022/04/12 04:01:39;;;;;;;76.30;68.40;;;;;;;2.27;71.18;98232.34;107816;1291;23024;-82
2022/04/12 04:04:07;;;;;;;88.20;71.80;;;;;;;2.26;71.27;98234.50;107600;1291;22286;-83
2022/04/12 04:06:35;;;;;;;98.10;76.90;;;;;;;2.14;71.17;98239.48;107820;1291;22554;-84
2022/04/12 04:09:03;;;;;;;111.60;81.30;;;;;;;2.08;71.46;98238.66;107578;1291;22272;-85
2022/04/12 04:11:31;;;;;;;83.90;73.90;;;;;;;2.11;71.92;98237.14;107822;1290;22290;-83
2022/04/12 04:14:03;;;;;;;93.20;69.60;;;;;;;2.13;71.62;98244.08;107807;1290;22246;-84
2022/04/12 04:16:31;;;;;;;86.20;74.10;;;;;;;2.10;71.26;98243.75;107797;1291;22315;-84
2022/04/12 04:18:59;;;;;;;75.40;68.10;;;;;;;2.10;71.68;98244.18;107804;1291;22230;-84
2022/04/12 04:21:27;;;;;;;84.90;76.00;;;;;;;2.13;71.84;98246.52;107810;1291;23136;-84
2022/04/12 04:23:54;;;;;;;139.10;98.10;;;;;;;2.13;71.83;98248.01;107828;1291;22316;-84
2022/04/12 04:26:22;;;;;;;78.90;70.80;;;;;;;2.13;71.82;98254.55;107829;1290;22756;-84
2022/04/12 04:28:51;;;;;;;72.80;65.50;;;;;;;2.10;72.00;98257.69;107823;1290;22371;-83
2022/04/12 04:31:19;;;;;;;72.70;65.20;;;;;;;2.07;71.99;98254.59;107827;1291;22151;-84
2022/04/12 04:33:51;;;;;;;79.30;68.30;;;;;;;2.12;72.15;98255.31;107831;1291;22469;-84
2022/04/12 04:36:19;;;;;;;71.60;64.40;;;;;;;2.21;72.21;98260.40;107840;1290;22274;-83
2022/04/12 04:38:47;;;;;;;65.70;59.30;;;;;;;2.28;72.03;98263.09;107856;1291;22327;-84
2022/04/12 04:41:14;;;;;;;72.40;64.80;;;;;;;2.24;71.77;98258.39;107593;1291;22352;-84
2022/04/12 04:43:45;;;;;;;94.60;78.20;;;;;;;2.22;72.26;98258.23;107842;1290;22587;-83
2022/04/12 04:46:14;;;;;;;82.50;73.60;;;;;;;2.28;72.43;98258.20;107845;1289;22853;-84
2022/04/12 04:48:42;;;;;;;67.20;60.00;;;;;;;2.35;72.36;98265.56;107865;1290;22402;-84
2022/04/12 04:51:10;;;;;;;72.00;64.80;;;;;;;2.33;72.09;98270.79;107852;1291;22362;-85
2022/04/12 04:53:38;;;;;;;100.20;73.90;;;;;;;2.31;72.26;98267.40;107654;1292;22956;-85
2022/04/12 04:56:06;;;;;;;79.80;67.40;;;;;;;2.37;72.39;98269.38;107834;1290;22728;-84
2022/04/12 04:58:34;;;;;;;65.60;58.90;;;;;;;2.47;72.29;98272.81;107819;1291;22375;-84
2022/04/12 05:01:02;;;;;;;62.50;55.80;;;;;;;2.53;72.27;98274.69;107856;1291;22870;-84
2022/04/12 05:03:29;;;;;;;72.00;64.80;;;;;;;2.57;72.13;98278.33;107824;1291;22355;-84
2022/04/12 05:05:57;;;;;;;77.40;69.30;;;;;;;2.57;72.40;98280.99;107565;1291;22299;-84
2022/04/12 05:08:25;;;;;;;73.50;66.10;;;;;;;2.63;72.62;98278.23;107825;1290;22553;-84
2022/04/12 05:10:53;;;;;;;79.10;71.00;;;;;;;2.72;72.77;98287.66;107851;1290;22268;-85
2022/04/12 05:13:21;;;;;;;77.60;69.10;;;;;;;2.76;72.25;98294.01;107865;1291;22426;-84
2022/04/12 05:15:49;;;;;;;89.90;68.30;;;;;;;2.73;72.37;98292.14;107871;1291;22287;-85
2022/04/12 05:18:16;;;;;;;75.10;63.80;;;;;;;2.82;72.61;98292.09;107562;1291;22407;-85
2022/04/12 05:20:44;;;;;;;76.30;66.70;;;;;;;2.95;72.81;98296.96;107828;1290;22299;-84
2022/04/12 05:23:12;;;;;;;69.00;62.00;;;;;;;3.08;72.90;98304.02;107836;1290;22506;-85
2022/04/12 05:25:40;;;;;;;422.20;251.70;;;;;;;3.18;72.47;98307.80;107853;1291;23097;-85
2022/04/12 05:28:08;;;;;;;261.40;148.80;;;;;;;3.19;72.50;98306.79;107878;1291;22388;-86
2022/04/12 05:30:36;;;;;;;235.70;135.50;;;;;;;3.25;72.66;98310.02;107866;1289;22401;-84
2022/04/12 05:33:04;;;;;;;180.30;108.70;;;;;;;3.33;72.65;98304.30;107847;1291;22937;-85
2022/04/12 05:35:31;;;;;;;191.10;110.20;;;;;;;3.43;72.81;98304.95;107821;1291;22980;-87
2022/04/12 05:37:59;;;;;;;187.60;107.60;;;;;;;3.52;72.49;98314.32;107852;1291;22286;-86
2022/04/12 05:40:45;;;;;;;188.10;106.20;;;;;;;3.62;72.48;98317.80;107860;1291;23080;-85
2022/04/12 05:43:13;;;;;;;139.70;88.70;;;;;;;3.77;72.56;98320.60;107867;1289;22374;-85
2022/04/12 05:45:41;;;;;;;124.90;81.40;;;;;;;3.91;72.44;98320.96;107872;1290;23146;-85
2022/04/12 05:48:09;;;;;;;127.40;81.20;;;;;;;4.06;72.61;98323.52;107883;1291;23001;-86
2022/04/12 05:50:41;;;;;;;92.40;75.00;;;;;;;4.20;72.53;98326.12;107875;1291;22529;-86
2022/04/12 05:53:09;;;;;;;113.90;79.70;;;;;;;4.32;72.45;98320.25;107844;1291;22261;-91
2022/04/12 05:55:37;;;;;;;102.10;73.90;;;;;;;4.45;72.43;98316.77;107878;1291;22648;-89
2022/04/12 05:58:05;;;;;;;101.30;72.30;;;;;;;4.56;72.23;98320.73;107860;1290;22436;-89
2022/04/12 06:00:34;;;;;;;95.70;73.80;;;;;;;4.63;72.04;98322.92;107837;1290;23060;-89
2022/04/12 06:03:02;;;;;;;75.00;66.00;;;;;;;4.71;72.15;98325.52;107469;1290;23156;-90
2022/04/12 06:05:32;;;;;;;106.40;82.30;;;;;;;4.80;71.91;98322.08;107881;1290;23059;-89
2022/04/12 06:08:00;;;;;;;85.40;75.30;;;;;;;4.89;71.78;98326.45;107894;1290;22475;-90
2022/04/12 06:10:28;;;;;;;71.80;60.70;;;;;;;4.99;71.57;98327.90;107876;1290;22410;-87
2022/04/12 06:12:59;;;;;;;59.00;53.20;;;;;;;5.08;71.59;98329.42;107867;1290;22300;-88
2022/04/12 06:15:27;;;;;;;61.10;53.30;;;;;;;5.15;71.32;98331.95;107863;1290;22502;-90
2022/04/12 06:17:55;;;;;;;55.40;49.50;;;;;;;5.23;71.16;98330.36;107876;1290;22396;-89
2022/04/12 06:20:23;;;;;;;61.40;51.60;;;;;;;5.31;70.88;98330.88;107892;1291;22342;-91
2022/04/12 06:22:51;;;;;;;55.60;49.60;;;;;;;5.40;70.70;98338.27;107882;1290;22272;-91
2022/04/12 06:25:20;;;;;;;55.30;47.80;;;;;;;5.49;70.58;98339.09;107923;1290;22365;-88
2022/04/12 06:27:53;;;;;;;50.60;45.50;;;;;;;5.56;70.41;98343.05;107916;1291;22368;-89
2022/04/12 06:30:26;;;;;;;47.80;41.60;;;;;;;5.63;70.40;98342.25;107932;1290;22407;-90
2022/04/12 06:32:54;;;;;;;48.70;42.10;;;;;;;5.71;70.14;98341.14;107932;1289;22519;-88
2022/04/12 06:35:23;;;;;;;45.70;39.70;;;;;;;5.78;70.00;98347.81;107653;1293;22569;-90
2022/04/12 06:37:53;;;;;;;36.20;32.40;;;;;;;5.81;69.04;98348.91;107732;1291;22945;-88
2022/04/12 06:40:22;;;;;;;38.00;33.60;;;;;;;5.85;68.07;98352.54;107946;1291;22457;-89
2022/04/12 06:42:51;;;;;;;37.60;32.70;;;;;;;5.89;68.23;98352.45;107909;1291;22264;-90
2022/04/12 06:45:20;;;;;;;34.40;31.00;;;;;;;5.97;68.22;98354.13;107604;1291;22164;-91
2022/04/12 06:47:59;;;;;;;37.00;32.40;;;;;;;6.02;67.64;98352.46;107938;1290;22952;-92
2022/04/12 06:50:28;;;;;;;35.60;31.40;;;;;;;6.08;67.07;98349.14;107954;1291;22295;-91
2022/04/12 06:52:57;;;;;;;30.60;27.50;;;;;;;6.15;67.41;98354.95;108111;1291;22358;-88
2022/04/12 06:55:27;;;;;;;35.60;31.80;;;;;;;6.21;67.08;98349.20;108139;1291;22364;-88
2022/04/12 06:57:55;;;;;;;36.50;30.90;;;;;;;6.28;66.81;98348.49;108079;1290;22930;-92
2022/04/12 07:00:23;;;;;;;35.50;31.10;;;;;;;6.34;67.33;98349.50;108056;1290;22365;-92
2022/04/12 07:02:51;;;;;;;40.00;35.80;;;;;;;6.41;66.65;98351.51;108056;1291;22395;-89
2022/04/12 07:05:20;;;;;;;39.60;32.60;;;;;;;6.50;66.46;98346.09;107961;1291;22416;-92
2022/04/12 07:07:48;;;;;;;33.70;30.00;;;;;;;6.58;66.73;98342.59;107931;1291;22511;-91
2022/04/12 07:10:16;;;;;;;33.30;30.00;;;;;;;6.67;65.81;98345.73;107973;1290;22516;-92
2022/04/12 07:12:45;;;;;;;32.70;29.50;;;;;;;6.74;65.01;98346.72;107968;1290;22356;-90
2022/04/12 07:15:14;;;;;;;31.00;28.00;;;;;;;6.80;65.54;98343.58;107937;1290;22357;-93
2022/04/12 07:17:42;;;;;;;33.00;29.70;;;;;;;6.93;65.62;98351.34;107955;1290;22292;-91
2022/04/12 07:20:10;;;;;;;34.00;30.70;;;;;;;7.00;63.40;98347.94;107644;1293;22376;-89
2022/04/12 07:22:38;;;;;;;28.70;25.80;;;;;;;7.08;64.41;98352.34;107726;1292;22285;-92
2022/04/12 07:25:07;;;;;;;27.40;24.70;;;;;;;7.16;64.49;98350.52;107953;1289;22405;-90
2022/04/12 07:27:36;;;;;;;29.70;25.80;;;;;;;7.24;63.89;98351.63;108130;1290;23128;-89
2022/04/12 07:30:07;;;;;;;26.60;23.70;;;;;;;7.33;63.26;98353.23;107662;1293;22413;-91
2022/04/12 07:32:35;;;;;;;25.10;22.40;;;;;;;7.40;62.75;98355.02;107946;1291;22532;-89
2022/04/12 07:35:03;;;;;;;31.20;25.40;;;;;;;7.44;62.00;98353.31;107661;1293;22262;-88
2022/04/12 07:37:31;;;;;;;25.70;23.00;;;;;;;7.52;62.44;98351.17;107933;1290;22371;-90
2022/04/12 07:39:59;;;;;;;22.20;19.90;;;;;;;7.63;63.40;98355.36;107896;1290;22271;-89
2022/04/12 07:42:27;;;;;;;21.70;19.50;;;;;;;7.72;63.15;98354.08;107634;1293;22353;-91
2022/04/12 07:44:55;;;;;;;18.60;16.10;;;;;;;7.82;62.77;98354.60;107905;1290;23048;-91
2022/04/12 07:47:23;;;;;;;19.60;15.20;;;;;;;7.92;61.06;98360.13;107876;1291;22297;-90
2022/04/12 07:49:51;;;;;;;17.50;15.50;;;;;;;7.98;61.38;98354.54;107887;1291;22242;-90
2022/04/12 07:52:19;;;;;;;16.90;14.10;;;;;;;8.11;61.28;98363.00;107572;1291;22520;-88
2022/04/12 07:54:47;;;;;;;18.40;16.10;;;;;;;8.16;61.05;98366.81;107897;1291;22255;-89
2022/04/12 07:57:15;;;;;;;17.00;14.90;;;;;;;8.19;60.62;98359.29;107897;1291;22288;-89
2022/04/12 07:59:43;;;;;;;15.90;13.90;;;;;;;8.28;59.99;98363.55;107887;1291;22372;-87
2022/04/12 08:02:10;;;;;;;14.80;11.60;;;;;;;8.37;59.46;98366.86;107909;1291;22644;-87
2022/04/12 08:04:41;;;;;;;15.30;12.90;;;;;;;8.38;56.35;98368.70;107895;1291;23156;-88
2022/04/12 08:07:09;;;;;;;14.20;12.50;;;;;;;8.37;56.92;98369.50;107960;1290;22263;-90
2022/04/12 08:09:37;;;;;;;14.50;11.30;;;;;;;8.46;58.19;98369.55;108060;1290;22457;-90
2022/04/12 08:12:05;;;;;;;15.30;12.00;;;;;;;8.56;56.73;98369.74;108073;1290;22389;-90
2022/04/12 08:14:32;;;;;;;11.80;9.90;;;;;;;8.64;55.57;98372.40;108069;1291;22351;-88
2022/04/12 08:17:00;;;;;;;11.50;10.10;;;;;;;8.71;56.18;98369.26;108048;1290;22385;-88
2022/04/12 08:19:29;;;;;;;12.10;10.00;;;;;;;8.77;55.83;98374.18;107901;1290;23257;-88
2022/04/12 08:21:59;;;;;;;15.50;12.80;;;;;;;8.78;56.15;98372.73;107700;1292;22975;-90
2022/04/12 08:24:28;;;;;;;14.10;10.90;;;;;;;8.86;54.13;98377.42;108127;1290;22349;-87
2022/04/12 08:26:56;;;;;;;14.60;10.90;;;;;;;8.92;55.76;98369.23;108061;1293;22128;-84
2022/04/12 08:29:25;;;;;;;13.30;7.40;;;;;;;9.07;54.53;98375.81;108344;1290;22321;-84
2022/04/12 08:31:53;;;;;;;12.20;8.90;;;;;;;9.15;54.40;98374.48;108025;1291;22228;-90
2022/04/12 08:34:21;;;;;;;12.90;10.50;;;;;;;9.23;52.96;98370.14;107985;1293;22355;-89
2022/04/12 08:36:49;;;;;;;13.20;9.60;;;;;;;9.30;53.37;98378.98;107678;1293;22450;-88
2022/04/12 08:39:17;;;;;;;12.60;9.00;;;;;;;9.35;54.16;98373.61;107969;1291;22303;-88
2022/04/12 08:41:45;;;;;;;10.40;8.00;;;;;;;9.41;54.45;98372.88;108026;1290;23181;-89
2022/04/12 08:44:17;;;;;;;12.30;8.50;;;;;;;9.56;55.13;98369.21;108090;1290;22397;-89
2022/04/12 08:46:46;;;;;;;14.10;9.60;;;;;;;9.79;54.55;98369.74;107995;1290;23200;-86
2022/04/12 08:49:15;;;;;;;14.00;9.10;;;;;;;9.95;53.96;98368.04;107638;1290;23026;-89
2022/04/12 08:51:45;;;;;;;9.10;7.40;;;;;;;10.09;52.78;98369.90;108002;1290;22322;-89
2022/04/12 08:54:44;;;;;;;10.70;7.80;;;;;;;10.01;49.41;98377.58;107712;1290;22386;-90
2022/04/12 08:57:12;;;;;;;11.20;7.50;;;;;;;9.85;50.83;98370.44;107984;1290;22383;-90
2022/04/12 08:59:41;;;;;;;11.50;8.70;;;;;;;9.75;49.32;98375.10;107998;1290;22410;-88
2022/04/12 09:02:09;;;;;;;10.10;8.60;;;;;;;9.67;47.48;98377.58;107646;1290;22234;-89
2022/04/12 09:04:37;;;;;;;12.70;9.00;;;;;;;9.53;45.61;98371.27;107988;1290;22359;-88
2022/04/12 09:07:10;;;;;;;10.10;7.70;;;;;;;9.56;49.42;98372.07;107977;1290;22535;-87
2022/04/12 09:09:40;;;;;;;11.10;9.90;;;;;;;9.62;49.37;98372.18;108184;1290;22587;-90
2022/04/12 09:12:10;;;;;;;15.10;11.00;;;;;;;9.63;48.82;98367.71;108012;1290;22240;-91
2022/04/12 09:14:43;;;;;;;12.30;8.70;;;;;;;9.75;49.89;98366.22;107988;1290;22309;-90
2022/04/12 09:17:15;;;;;;;10.60;8.60;;;;;;;9.95;50.31;98360.89;107998;1290;23100;-90
2022/04/12 09:19:47;;;;;;;11.10;9.00;;;;;;;10.22;50.19;98361.40;107567;1293;23257;-87
2022/04/12 09:22:18;;;;;;;14.60;10.20;;;;;;;10.39;47.88;98365.45;107918;1289;22300;-90
2022/04/12 09:24:53;;;;;;;13.70;11.00;;;;;;;10.48;45.62;98367.40;107869;1291;22431;-91
2022/04/12 09:27:27;;;;;;;11.40;9.70;;;;;;;10.49;46.68;98374.87;107941;1291;22342;-93
2022/04/12 09:30:01;;;;;;;13.60;9.70;;;;;;;10.52;47.80;98366.27;107680;1291;22646;-88
2022/04/12 09:32:35;;;;;;;16.40;12.70;;;;;;;10.54;46.98;98365.61;107902;1290;22455;-89
2022/04/12 09:35:03;;;;;;;15.20;11.00;;;;;;;10.61;48.12;98356.67;107898;1291;22519;-89
2022/04/12 09:37:34;;;;;;;13.80;9.80;;;;;;;10.70;47.27;98355.27;107888;1290;22404;-90
2022/04/12 09:40:02;;;;;;;17.50;11.60;;;;;;;10.81;48.12;98346.13;107655;1290;22289;-90
2022/04/12 09:42:42;;;;;;;15.00;10.90;;;;;;;11.02;48.47;98344.45;107860;1291;22276;-86
2022/04/12 09:45:22;;;;;;;13.40;10.40;;;;;;;11.11;47.80;98351.25;107873;1291;23077;-90
2022/04/12 09:48:01;;;;;;;15.30;11.30;;;;;;;11.08;47.29;98353.72;107892;1290;22294;-88
2022/04/12 09:50:50;;;;;;;13.50;9.70;;;;;;;11.03;47.19;98344.30;107899;1290;22345;-88
2022/04/12 09:53:18;;;;;;;14.30;12.00;;;;;;;10.96;46.49;98354.52;107887;1291;22405;-90
2022/04/12 09:55:49;;;;;;;11.70;10.50;;;;;;;10.74;46.55;98351.83;107933;1291;22354;-91
2022/04/12 09:58:22;;;;;;;14.80;10.20;;;;;;;10.55;47.04;98350.45;107963;1291;23060;-91
2022/04/12 10:00:50;;;;;;;18.30;11.30;;;;;;;10.50;47.68;98346.64;107890;1291;23247;-91
2022/04/12 10:03:19;;;;;;;12.80;11.10;;;;;;;10.40;47.05;98346.52;107927;1290;23152;-91
2022/04/12 10:05:47;;;;;;;11.40;9.40;;;;;;;10.44;47.21;98345.73;107925;1291;22379;-92
2022/04/12 10:08:17;;;;;;;15.00;11.00;;;;;;;10.60;47.38;98336.60;107895;1291;22419;-90
2022/04/12 10:10:45;;;;;;;12.80;10.60;;;;;;;10.72;47.47;98333.59;107913;1291;22545;-92
2022/04/12 10:13:15;;;;;;;12.50;10.00;;;;;;;10.86;47.64;98332.27;107938;1291;22986;-88
2022/04/12 10:15:43;;;;;;;14.10;9.90;;;;;;;11.13;47.12;98331.42;107883;1290;23212;-91
2022/04/12 10:18:15;;;;;;;11.00;9.30;;;;;;;11.36;45.49;98334.27;107572;1290;22460;-91
2022/04/12 10:20:44;;;;;;;15.20;13.40;;;;;;;11.44;45.36;98332.70;107656;1290;23084;-89
2022/04/12 10:23:22;;;;;;;12.10;10.20;;;;;;;11.44;46.08;98334.05;107983;1289;22373;-90
2022/04/12 10:25:51;;;;;;;13.00;11.00;;;;;;;11.51;45.49;98335.89;107962;1290;22419;-88
2022/04/12 10:28:21;;;;;;;14.20;11.20;;;;;;;11.40;44.65;98334.86;107963;1290;22373;-89
2022/04/12 10:30:49;;;;;;;12.90;11.50;;;;;;;11.22;44.26;98335.23;107955;1290;22397;-90
2022/04/12 10:33:26;;;;;;;13.30;11.00;;;;;;;11.14;44.84;98334.92;107978;1290;22970;-89
2022/04/12 10:35:55;;;;;;;11.60;10.10;;;;;;;11.12;44.96;98335.01;107694;1290;22362;-90
2022/04/12 10:38:26;;;;;;;12.90;10.40;;;;;;;11.13;45.23;98331.95;107973;1290;22437;-91
2022/04/12 10:40:57;;;;;;;12.80;11.50;;;;;;;11.20;44.89;98331.81;107985;1289;22406;-90
2022/04/12 10:43:36;;;;;;;13.00;11.60;;;;;;;11.30;45.49;98326.93;107671;1290;22382;-89
2022/04/12 10:46:06;;;;;;;12.10;10.30;;;;;;;11.42;45.53;98328.32;107976;1290;22272;-86
2022/04/12 10:48:34;;;;;;;14.00;10.90;;;;;;;11.52;45.40;98328.19;108005;1290;22397;-87
2022/04/12 10:51:05;;;;;;;105.10;88.10;;;;;;;11.58;44.84;98324.98;108100;1290;22949;-86
2022/04/12 10:53:54;;;;;;;30.80;27.70;;;;;;;11.59;44.23;98320.96;107644;1290;22278;-90
2022/04/12 10:56:25;;;;;;;86.80;74.70;;;;;;;11.55;44.11;98317.04;107949;1290;22256;-88
2022/04/12 10:58:52;;;;;;;32.80;29.20;;;;;;;11.63;43.51;98311.94;107656;1290;22356;-90
2022/04/12 11:01:28;;;;;;;25.60;22.60;;;;;;;11.84;44.64;98309.92;107981;1290;23411;-89
2022/04/12 11:03:59;;;;;;;30.00;26.90;;;;;;;12.18;44.78;98307.98;108029;1290;22343;-90
2022/04/12 11:06:28;;;;;;;77.50;70.00;;;;;;;12.54;43.81;98310.26;108131;1290;23207;-92
2022/04/12 11:09:07;;;;;;;43.80;39.90;;;;;;;12.83;43.55;98307.50;107514;1290;22563;-88
2022/04/12 11:11:42;;;;;;;16.60;14.50;;;;;;;13.05;43.47;98301.77;107962;1290;23098;-90
2022/04/12 11:14:22;;;;;;;21.40;19.30;;;;;;;13.18;43.55;98308.46;107966;1290;22356;-90
2022/04/12 11:16:54;;;;;;;14.40;12.90;;;;;;;13.32;43.25;98305.30;107975;1290;22293;-88
2022/04/12 11:19:24;;;;;;;14.00;10.20;;;;;;;13.52;42.86;98300.52;107644;1291;22883;-90
2022/04/12 11:22:00;;;;;;;12.60;10.80;;;;;;;13.64;41.52;98304.38;107977;1290;23233;-90
2022/04/12 11:24:28;;;;;;;14.70;10.30;;;;;;;13.48;40.59;98310.89;107917;1290;22376;-90
2022/04/12 11:27:03;;;;;;;14.00;11.60;;;;;;;13.10;40.61;98304.04;107943;1289;22343;-88